Time;durP1;ratioP1;P1;durP2;ratioP2;P2;SDS_P1;SDS_P2;PMS_P1;PMS_P2;Temp;Humidity;BMP_temperature;BMP_pressure;BME280_temperature;BME280_humidity;BME280_pressure;Samples;Min_cycle;Max_cycle;Signal;HPM_P1;HPM_P2
2022/01/15 00:00:28;;;;;;;12.63;3.95;;;0.70;99.90;;;;;;4991207;28;20036;-49
2022/01/15 00:02:55;;;;;;;11.48;4.88;;;0.70;99.90;;;;;;4973989;28;20077;-51
2022/01/15 00:05:21;;;;;;;13.77;4.95;;;0.70;99.90;;;;;;4991374;28;20362;-50
2022/01/15 00:07:48;;;;;;;19.48;5.45;;;0.70;99.90;;;;;;4991209;28;20389;-49
2022/01/15 00:10:16;;;;;;;15.90;4.57;;;0.60;99.90;;;;;;4991698;28;20065;-52
2022/01/15 00:12:42;;;;;;;22.67;5.40;;;0.60;99.90;;;;;;4991407;28;20041;-51
2022/01/15 00:15:18;;;;;;;16.13;4.97;;;0.60;99.90;;;;;;4991148;28;20408;-50
2022/01/15 00:17:48;;;;;;;19.02;5.03;;;0.60;99.90;;;;;;4991214;28;20109;-51
2022/01/15 00:20:16;;;;;;;14.73;4.38;;;0.60;99.90;;;;;;4990980;28;20034;-49
2022/01/15 00:22:43;;;;;;;12.07;4.32;;;0.60;99.90;;;;;;4991145;28;20031;-51
2022/01/15 00:25:09;;;;;;;16.42;5.43;;;0.60;99.90;;;;;;4990886;28;20024;-54
2022/01/15 00:27:34;;;;;;;13.75;4.35;;;0.50;99.90;;;;;;4990623;28;20030;-49
2022/01/15 00:30:01;;;;;;;13.98;4.90;;;0.50;99.90;;;;;;4990790;28;20096;-49
2022/01/15 00:32:27;;;;;;;12.18;4.60;;;0.50;99.90;;;;;;4990946;28;20065;-49
2022/01/15 00:34:53;;;;;;;12.44;5.06;;;0.50;99.90;;;;;;4966206;28;1050897;-53
2022/01/15 00:37:19;;;;;;;12.05;4.22;;;0.50;99.90;;;;;;4991231;28;20046;-49
2022/01/15 00:39:44;;;;;;;10.95;4.13;;;0.50;99.90;;;;;;4991521;28;20042;-50
2022/01/15 00:42:10;;;;;;;12.25;4.68;;;0.50;99.90;;;;;;4991494;28;20030;-48
2022/01/15 00:44:38;;;;;;;12.77;4.57;;;0.40;99.90;;;;;;4991330;28;20030;-51
2022/01/15 00:47:04;;;;;;;13.85;5.20;;;0.40;99.90;;;;;;4991722;28;20536;-51
2022/01/15 00:49:29;;;;;;;10.50;4.50;;;0.40;99.90;;;;;;4991113;28;20064;-50
2022/01/15 00:51:55;;;;;;;12.43;5.00;;;0.40;99.90;;;;;;4991649;28;20030;-51
2022/01/15 00:54:21;;;;;;;11.63;4.28;;;0.40;99.90;;;;;;4991112;28;20409;-51
2022/01/15 00:56:46;;;;;;;12.32;4.63;;;0.30;99.90;;;;;;4991239;28;20481;-49
2022/01/15 00:59:13;;;;;;;15.25;4.82;;;0.30;99.90;;;;;;4990384;28;20039;-51
2022/01/15 01:01:39;;;;;;;8.10;4.50;;;0.30;99.90;;;;;;4973517;28;20058;-50
2022/01/15 01:04:04;;;;;;;11.57;4.63;;;0.30;99.90;;;;;;4991083;28;20368;-49
2022/01/15 01:06:30;;;;;;;10.20;4.60;;;0.30;99.90;;;;;;4969646;28;20030;-50
2022/01/15 01:08:55;;;;;;;12.85;5.00;;;0.30;99.90;;;;;;4989818;28;20030;-49
2022/01/15 01:11:43;;;;;;;15.23;4.70;;;0.30;99.90;;;;;;4990991;28;20491;-50
2022/01/15 01:24:32;;;;;;;9.45;4.18;;;0.40;99.90;;;;;;4990812;28;20108;-51
2022/01/15 01:34:24;;;;;;;16.50;5.05;;;0.50;99.90;;;;;;4990659;28;20030;-48
2022/01/15 01:39:19;;;;;;;18.08;4.65;;;0.60;99.90;;;;;;4990201;28;20092;-49
2022/01/15 01:42:05;;;;;;;10.80;3.72;;;0.50;99.90;;;;;;4990919;28;20033;-50
2022/01/15 01:44:31;;;;;;;13.15;4.43;;;0.60;99.90;;;;;;4989925;28;20026;-50
2022/01/15 01:47:05;;;;;;;14.00;5.13;;;0.60;99.90;;;;;;4990643;28;20053;-50
2022/01/15 01:49:30;;;;;;;14.55;4.57;;;0.60;99.90;;;;;;4990117;28;20109;-51
2022/01/15 01:51:56;;;;;;;18.30;4.85;;;0.60;99.90;;;;;;4990111;28;20130;-56
2022/01/15 01:54:22;;;;;;;13.35;4.60;;;0.60;99.90;;;;;;4991190;28;20030;-48
2022/01/15 01:56:48;;;;;;;15.32;3.83;;;0.60;99.90;;;;;;4990597;28;20030;-51
2022/01/15 01:59:16;;;;;;;17.30;5.00;;;0.70;99.90;;;;;;4970563;28;20038;-49
2022/01/15 02:01:42;;;;;;;16.38;4.10;;;0.70;99.90;;;;;;4970502;28;20038;-49
2022/01/15 02:04:08;;;;;;;17.15;5.07;;;0.70;99.90;;;;;;4971156;28;20127;-50
2022/01/15 02:06:35;;;;;;;24.40;4.47;;;0.70;99.90;;;;;;4973043;28;20022;-49
2022/01/15 02:09:05;;;;;;;16.92;5.22;;;0.80;99.90;;;;;;4989891;28;20034;-50
2022/01/15 02:11:30;;;;;;;12.65;4.80;;;0.80;99.90;;;;;;4972943;28;20022;-48
2022/01/15 02:13:56;;;;;;;25.85;5.20;;;0.80;99.90;;;;;;4990134;28;20038;-49
2022/01/15 02:16:22;;;;;;;20.73;5.03;;;0.80;99.90;;;;;;4989811;28;20129;-51
2022/01/15 02:18:52;;;;;;;13.30;3.95;;;0.90;99.90;;;;;;4989207;28;20547;-49
2022/01/15 02:24:03;;;;;;;16.67;3.65;;;0.90;99.90;;;;;;4989686;28;20081;-49
2022/01/15 02:26:28;;;;;;;11.55;3.80;;;1.00;99.90;;;;;;4989979;28;20432;-50
2022/01/15 02:29:02;;;;;;;12.18;3.75;;;1.00;99.90;;;;;;4989671;28;20506;-49
2022/01/15 02:31:29;;;;;;;18.15;4.00;;;1.00;99.90;;;;;;4989827;28;20113;-49
2022/01/15 02:33:57;;;;;;;18.20;4.63;;;1.00;99.90;;;;;;4989154;28;20553;-50
2022/01/15 02:36:29;;;;;;;16.42;4.30;;;1.10;99.90;;;;;;4989455;28;20038;-48
2022/01/15 02:38:55;;;;;;;18.42;3.72;;;1.10;99.90;;;;;;4989545;28;20118;-49
2022/01/15 02:41:34;;;;;;;17.48;3.50;;;1.10;99.90;;;;;;4989744;28;20023;-48
2022/01/15 02:44:03;;;;;;;16.58;4.05;;;1.20;99.90;;;;;;4986534;28;20055;-49
2022/01/15 02:48:57;;;;;;;28.83;3.90;;;1.30;99.90;;;;;;4988842;28;20141;-49
2022/01/15 02:51:31;;;;;;;22.10;4.28;;;1.30;99.90;;;;;;4988706;28;20031;-50
2022/01/15 02:53:57;;;;;;;19.75;4.43;;;1.30;99.90;;;;;;4983362;28;20105;-49
2022/01/15 02:56:41;;;;;;;12.65;3.88;;;1.30;99.90;;;;;;4972131;28;20119;-49
2022/01/15 02:59:10;;;;;;;21.35;4.57;;;1.30;99.90;;;;;;4988894;28;20037;-49
2022/01/15 03:01:36;;;;;;;20.20;3.30;;;1.40;99.90;;;;;;4977015;28;20081;-51
2022/01/15 03:04:02;;;;;;;18.52;3.42;;;1.40;99.90;;;;;;4974170;28;20381;-51
2022/01/15 03:06:28;;;;;;;18.35;3.65;;;1.40;99.90;;;;;;4973180;28;20517;-50
2022/01/15 03:08:54;;;;;;;19.20;4.68;;;1.40;99.90;;;;;;4988333;28;20043;-50
2022/01/15 03:11:44;;;;;;;16.92;4.03;;;1.40;99.90;;;;;;4964832;28;20273;-53
2022/01/15 03:14:12;;;;;;;20.42;3.90;;;1.40;99.90;;;;;;4979829;28;20041;-52
2022/01/15 03:16:38;;;;;;;19.05;3.50;;;1.40;99.90;;;;;;4971040;28;20038;-51
2022/01/15 03:19:03;;;;;;;16.80;3.53;;;1.50;99.90;;;;;;4988575;28;20519;-50
2022/01/15 03:21:29;;;;;;;21.40;3.28;;;1.50;99.90;;;;;;4989054;28;20555;-50
2022/01/15 03:23:55;;;;;;;11.95;3.10;;;1.50;99.90;;;;;;4987986;28;20029;-49
2022/01/15 03:26:20;;;;;;;11.70;2.90;;;1.50;99.90;;;;;;4970989;28;20034;-53
2022/01/15 03:28:46;;;;;;;13.45;2.42;;;1.50;99.90;;;;;;4988454;28;20034;-50
2022/01/15 03:31:12;;;;;;;14.48;3.00;;;1.50;99.90;;;;;;4973197;28;20380;-50
2022/01/15 03:33:38;;;;;;;17.35;2.92;;;1.50;99.90;;;;;;4992323;28;20121;-49
2022/01/15 03:36:04;;;;;;;20.63;3.35;;;1.60;99.90;;;;;;4992265;28;20556;-50
2022/01/15 03:38:29;;;;;;;14.45;2.63;;;1.60;99.90;;;;;;4992212;28;20030;-51
2022/01/15 03:40:55;;;;;;;14.25;2.75;;;1.60;99.90;;;;;;4992891;28;20025;-50
2022/01/15 03:43:21;;;;;;;11.68;2.80;;;1.60;99.90;;;;;;4974485;28;20022;-50
2022/01/15 03:45:47;;;;;;;11.10;2.35;;;1.60;99.90;;;;;;4992472;28;20027;-50
2022/01/15 03:48:12;;;;;;;12.60;2.85;;;1.60;99.90;;;;;;4992588;28;20022;-49
2022/01/15 03:50:38;;;;;;;9.15;2.58;;;1.60;99.90;;;;;;4992315;28;20035;-49
2022/01/15 03:53:03;;;;;;;17.63;3.25;;;1.60;99.90;;;;;;4992324;28;20065;-49
2022/01/15 03:55:29;;;;;;;15.73;4.30;;;1.60;99.90;;;;;;4992236;28;20026;-49
2022/01/15 03:58:00;;;;;;;10.85;3.25;;;1.60;99.90;;;;;;4992498;28;20042;-51
2022/01/15 04:00:27;;;;;;;12.23;3.15;;;1.60;99.90;;;;;;4974643;28;20026;-49
2022/01/15 04:02:55;;;;;;;16.30;3.50;;;1.60;99.90;;;;;;4991946;28;20426;-49
2022/01/15 04:05:21;;;;;;;12.15;3.53;;;1.60;99.90;;;;;;4992130;28;20026;-50
2022/01/15 04:07:48;;;;;;;10.82;3.35;;;1.60;99.90;;;;;;4992229;28;20030;-48
2022/01/15 04:10:15;;;;;;;17.17;3.25;;;1.60;99.90;;;;;;4974418;28;20022;-50
2022/01/15 04:12:40;;;;;;;27.10;5.10;;;1.60;99.90;;;;;;4974160;28;20109;-52
2022/01/15 04:15:08;;;;;;;11.70;3.25;;;1.60;99.90;;;;;;4991660;28;20114;-50
2022/01/15 04:17:34;;;;;;;14.60;3.60;;;1.60;99.90;;;;;;4991830;28;20048;-50
2022/01/15 04:19:59;;;;;;;11.77;2.72;;;1.60;99.90;;;;;;4991639;28;20128;-50
2022/01/15 04:22:25;;;;;;;10.73;2.38;;;1.50;99.90;;;;;;4991624;28;20029;-49
2022/01/15 04:24:51;;;;;;;15.55;3.80;;;1.50;99.90;;;;;;4991744;28;20057;-51
2022/01/15 04:27:21;;;;;;;18.40;4.43;;;1.40;99.90;;;;;;4992012;28;20444;-50
2022/01/15 04:29:46;;;;;;;16.48;3.70;;;1.40;99.90;;;;;;4973937;28;20186;-49
2022/01/15 04:32:12;;;;;;;15.85;3.33;;;1.40;99.90;;;;;;4991366;28;20400;-51
2022/01/15 04:34:37;;;;;;;11.82;2.60;;;1.30;99.90;;;;;;4991564;28;20139;-49
2022/01/15 04:37:10;;;;;;;11.48;2.97;;;1.30;99.90;;;;;;5016044;23;20057;-50
2022/01/15 04:39:35;;;;;;;7.88;2.65;;;1.30;99.90;;;;;;5010590;28;20034;-51
2022/01/15 04:42:01;;;;;;;10.23;2.42;;;1.20;99.90;;;;;;5008882;28;20045;-51
2022/01/15 04:44:27;;;;;;;16.73;3.15;;;1.20;99.90;;;;;;5010247;28;20018;-50
2022/01/15 04:46:53;;;;;;;12.05;2.80;;;1.20;99.90;;;;;;5010217;28;20388;-51
2022/01/15 04:49:21;;;;;;;10.80;2.50;;;1.20;99.90;;;;;;4985276;28;20117;-53
2022/01/15 04:51:47;;;;;;;10.15;2.97;;;1.20;99.90;;;;;;4998628;28;20033;-52
2022/01/15 04:54:12;;;;;;;12.98;2.70;;;1.10;99.90;;;;;;5008720;28;20109;-52
2022/01/15 04:56:38;;;;;;;8.70;2.50;;;1.10;99.90;;;;;;5009144;28;20034;-50
2022/01/15 04:59:04;;;;;;;11.02;2.83;;;1.10;99.90;;;;;;5009950;28;20136;-50
2022/01/15 05:01:29;;;;;;;8.15;2.47;;;1.10;99.90;;;;;;5008606;28;20033;-51
2022/01/15 05:03:57;;;;;;;9.60;2.25;;;1.10;99.90;;;;;;4991133;28;20030;-49
2022/01/15 05:06:23;;;;;;;7.13;2.72;;;1.00;99.90;;;;;;5006620;28;20108;-52
2022/01/15 05:08:52;;;;;;;13.25;3.03;;;1.00;99.90;;;;;;4990574;28;20411;-50
2022/01/15 05:11:31;;;;;;;7.65;2.50;;;1.00;99.90;;;;;;4990544;28;20523;-50
2022/01/15 05:13:57;;;;;;;11.00;2.65;;;1.00;99.90;;;;;;4990227;28;20034;-50
2022/01/15 05:16:23;;;;;;;14.52;3.85;;;1.00;99.90;;;;;;4996127;28;20026;-50
2022/01/15 05:18:48;;;;;;;10.35;3.08;;;1.00;99.90;;;;;;5009811;28;20030;-54
2022/01/15 05:21:14;;;;;;;11.05;3.25;;;1.00;99.90;;;;;;5008229;28;20030;-54
2022/01/15 05:23:39;;;;;;;12.38;2.83;;;1.00;99.90;;;;;;5007880;28;20034;-49
2022/01/15 05:26:05;;;;;;;18.48;3.25;;;1.00;99.90;;;;;;4990071;28;20034;-49
2022/01/15 05:28:30;;;;;;;9.60;2.53;;;1.00;99.90;;;;;;4990164;28;20050;-50
2022/01/15 05:30:56;;;;;;;10.15;3.08;;;1.00;99.90;;;;;;4990239;28;20378;-50
2022/01/15 05:33:22;;;;;;;7.68;2.47;;;1.00;99.90;;;;;;4989651;28;20094;-50
2022/01/15 05:35:47;;;;;;;14.18;2.85;;;1.00;99.90;;;;;;4989372;28;20030;-53
2022/01/15 05:38:15;;;;;;;12.80;3.53;;;1.00;99.90;;;;;;4989857;28;20102;-49
2022/01/15 05:40:41;;;;;;;9.85;3.30;;;1.00;99.90;;;;;;4989217;28;20042;-49
2022/01/15 05:43:06;;;;;;;10.20;2.97;;;1.00;99.90;;;;;;4989177;28;20543;-51
2022/01/15 05:45:33;;;;;;;11.55;3.28;;;1.00;99.90;;;;;;4989735;28;20483;-50
2022/01/15 05:48:01;;;;;;;13.90;3.90;;;1.00;99.90;;;;;;4990053;28;20481;-51
2022/01/15 05:50:26;;;;;;;7.90;2.70;;;1.00;99.90;;;;;;4989545;28;20457;-50
2022/01/15 05:52:52;;;;;;;10.07;3.47;;;1.00;99.90;;;;;;4989107;28;20026;-51
2022/01/15 05:55:18;;;;;;;8.27;2.55;;;1.00;99.90;;;;;;4989255;28;20035;-51
2022/01/15 05:57:43;;;;;;;9.43;3.60;;;1.00;99.90;;;;;;4989426;28;20109;-50
2022/01/15 06:00:09;;;;;;;17.48;4.10;;;1.00;99.90;;;;;;4989517;28;20037;-50
2022/01/15 06:02:35;;;;;;;12.30;2.20;;;1.00;99.90;;;;;;4989073;28;20037;-51
2022/01/15 06:05:03;;;;;;;9.90;3.33;;;1.00;99.90;;;;;;4989799;28;20030;-50
2022/01/15 06:07:28;;;;;;;13.43;3.28;;;1.00;99.90;;;;;;4988913;28;20026;-52
2022/01/15 06:09:56;;;;;;;14.20;4.22;;;0.90;99.90;;;;;;4989242;28;20030;-49
2022/01/15 06:12:28;;;;;;;11.43;3.63;;;1.00;99.90;;;;;;4971424;28;20089;-50
2022/01/15 06:14:54;;;;;;;14.02;3.25;;;1.00;99.90;;;;;;4971785;28;20117;-51
2022/01/15 06:17:19;;;;;;;11.85;3.30;;;1.00;99.90;;;;;;4988991;28;20133;-51
2022/01/15 06:19:45;;;;;;;10.95;3.45;;;1.00;99.90;;;;;;4989234;28;20031;-53
2022/01/15 06:22:11;;;;;;;13.90;3.28;;;1.00;99.90;;;;;;4988894;28;20121;-50
2022/01/15 06:24:36;;;;;;;13.07;3.10;;;1.00;99.90;;;;;;4971556;28;20085;-48
2022/01/15 06:27:02;;;;;;;14.65;3.75;;;1.10;99.90;;;;;;4989260;28;20035;-49
2022/01/15 06:29:28;;;;;;;8.23;2.65;;;1.10;99.90;;;;;;4988884;28;20460;-51
2022/01/15 06:31:56;;;;;;;19.17;4.45;;;1.10;99.90;;;;;;4988408;28;20038;-52
2022/01/15 06:34:21;;;;;;;11.52;4.13;;;1.10;99.90;;;;;;4989047;28;20030;-51
2022/01/15 06:36:49;;;;;;;9.45;3.40;;;1.10;99.90;;;;;;4989011;28;20377;-51
2022/01/15 06:39:15;;;;;;;16.20;4.05;;;1.10;99.90;;;;;;4989240;28;20034;-51
2022/01/15 06:41:40;;;;;;;9.55;2.75;;;1.10;99.90;;;;;;4970757;28;20033;-50
2022/01/15 06:44:06;;;;;;;8.20;3.38;;;1.10;99.90;;;;;;4988892;28;20109;-49
2022/01/15 06:46:32;;;;;;;9.15;3.53;;;1.10;99.90;;;;;;4989081;28;20027;-50
2022/01/15 06:48:57;;;;;;;9.98;3.00;;;1.10;99.90;;;;;;4989347;28;20046;-49
2022/01/15 06:51:25;;;;;;;9.98;3.05;;;1.10;99.90;;;;;;4991396;28;20030;-51
2022/01/15 06:53:51;;;;;;;13.38;3.67;;;1.00;99.90;;;;;;4988979;28;20027;-50
2022/01/15 06:56:16;;;;;;;10.80;2.60;;;1.00;99.90;;;;;;4992944;28;20033;-54
2022/01/15 06:58:42;;;;;;;10.15;3.08;;;1.00;99.90;;;;;;5000323;28;20128;-51
2022/01/15 07:01:11;;;;;;;9.43;2.15;;;1.00;99.90;;;;;;4996664;28;20026;-51
2022/01/15 07:03:36;;;;;;;15.20;3.17;;;1.00;99.90;;;;;;4988877;28;20558;-51
2022/01/15 07:06:02;;;;;;;9.95;2.70;;;1.00;99.90;;;;;;4990435;28;20034;-50
2022/01/15 07:08:27;;;;;;;9.80;3.03;;;1.00;99.90;;;;;;4994035;28;20045;-51
2022/01/15 07:10:53;;;;;;;9.02;3.78;;;1.00;99.90;;;;;;4992651;28;20034;-52
2022/01/15 07:13:20;;;;;;;11.50;3.17;;;1.00;99.90;;;;;;5004598;28;20065;-51
2022/01/15 07:15:46;;;;;;;11.57;2.95;;;1.00;99.90;;;;;;5012346;28;20552;-50
2022/01/15 07:18:12;;;;;;;13.27;3.65;;;1.00;99.90;;;;;;4995020;28;20037;-50
2022/01/15 07:20:37;;;;;;;15.02;4.30;;;1.10;99.90;;;;;;5012095;28;20037;-49
2022/01/15 07:23:03;;;;;;;14.95;3.67;;;1.10;99.90;;;;;;5007776;28;20054;-50
2022/01/15 07:25:29;;;;;;;10.60;3.60;;;1.10;99.90;;;;;;4992303;28;20037;-51
2022/01/15 07:27:54;;;;;;;10.80;4.07;;;1.10;99.90;;;;;;4992393;28;20022;-49
2022/01/15 07:30:20;;;;;;;14.45;4.18;;;1.10;99.90;;;;;;4992094;28;20137;-50
2022/01/15 07:32:46;;;;;;;14.20;3.92;;;1.10;99.90;;;;;;4991961;28;20503;-53
2022/01/15 07:35:12;;;;;;;11.55;4.10;;;1.10;99.90;;;;;;4991694;28;20186;-51
2022/01/15 07:37:38;;;;;;;10.38;3.92;;;1.10;99.90;;;;;;4991697;28;20046;-50
2022/01/15 07:40:05;;;;;;;18.63;5.03;;;1.20;99.90;;;;;;4998868;28;20389;-48
2022/01/15 07:42:35;;;;;;;13.82;3.97;;;1.20;99.90;;;;;;4991876;28;20062;-51
2022/01/15 07:45:04;;;;;;;10.75;3.92;;;1.20;99.90;;;;;;4992416;28;20520;-50
2022/01/15 07:47:30;;;;;;;19.02;5.05;;;1.20;99.90;;;;;;4992013;28;20022;-50
2022/01/15 07:49:55;;;;;;;14.90;4.85;;;1.20;99.90;;;;;;4992095;28;20033;-50
2022/01/15 07:52:21;;;;;;;11.95;4.63;;;1.20;99.90;;;;;;4991864;28;20034;-50
2022/01/15 07:54:46;;;;;;;11.70;4.20;;;1.30;99.90;;;;;;4992244;28;20096;-50
2022/01/15 07:57:12;;;;;;;12.85;4.95;;;1.30;99.90;;;;;;4992247;28;20116;-51
2022/01/15 07:59:37;;;;;;;18.63;5.20;;;1.30;99.90;;;;;;4992124;28;20065;-51
2022/01/15 08:02:03;;;;;;;10.27;4.75;;;1.30;99.90;;;;;;4974266;28;20022;-50
2022/01/15 08:04:29;;;;;;;15.73;5.47;;;1.30;99.90;;;;;;4992200;28;20029;-53
2022/01/15 08:06:54;;;;;;;12.00;4.80;;;1.40;99.90;;;;;;4991892;28;20397;-50
2022/01/15 08:09:20;;;;;;;9.77;5.20;;;1.40;99.90;;;;;;4991890;28;20448;-51
2022/01/15 08:11:45;;;;;;;10.80;4.57;;;1.40;99.90;;;;;;4991636;28;20109;-51
2022/01/15 08:14:11;;;;;;;16.90;6.15;;;1.40;99.90;;;;;;5007477;28;20076;-49
2022/01/15 08:16:37;;;;;;;17.17;5.50;;;1.50;99.90;;;;;;5008798;28;20808;-54
2022/01/15 08:19:02;;;;;;;9.45;4.22;;;1.50;99.90;;;;;;5010924;28;20030;-49
2022/01/15 08:21:28;;;;;;;8.25;4.75;;;1.50;99.90;;;;;;5010473;28;20034;-54
2022/01/15 08:23:53;;;;;;;14.45;5.45;;;1.50;99.90;;;;;;5000078;28;20535;-49
2022/01/15 08:26:19;;;;;;;10.73;4.68;;;1.50;99.90;;;;;;4993206;28;20142;-53
2022/01/15 08:28:45;;;;;;;16.13;5.47;;;1.60;99.90;;;;;;4990814;28;20180;-51
2022/01/15 08:31:11;;;;;;;16.92;6.38;;;1.60;99.90;;;;;;4989796;28;20021;-51
2022/01/15 08:33:36;;;;;;;12.88;5.03;;;1.60;99.90;;;;;;4991156;28;20022;-51
2022/01/15 08:36:02;;;;;;;15.82;7.05;;;1.70;99.90;;;;;;4991363;28;20045;-50
2022/01/15 08:38:28;;;;;;;17.92;6.97;;;1.70;99.90;;;;;;4997836;28;20052;-52
2022/01/15 08:40:53;;;;;;;16.60;6.95;;;1.70;99.90;;;;;;5011288;28;20369;-50
2022/01/15 08:43:19;;;;;;;17.20;7.03;;;1.80;99.90;;;;;;4993191;28;20018;-51
2022/01/15 08:45:46;;;;;;;15.75;7.35;;;1.80;99.90;;;;;;4991414;28;20559;-53
2022/01/15 08:48:12;;;;;;;14.88;6.63;;;1.80;99.90;;;;;;4995246;28;20100;-51
2022/01/15 08:50:38;;;;;;;12.10;6.30;;;1.80;99.90;;;;;;5011043;28;20124;-52
2022/01/15 08:53:06;;;;;;;16.38;6.95;;;1.90;99.90;;;;;;5009347;28;20034;-51
2022/01/15 08:55:35;;;;;;;17.10;6.25;;;1.90;99.90;;;;;;4994700;28;20407;-51
2022/01/15 08:58:02;;;;;;;15.77;7.15;;;1.90;99.90;;;;;;4991369;28;20043;-54
2022/01/15 09:00:28;;;;;;;22.67;8.00;;;2.00;99.90;;;;;;4992416;28;20574;-49
2022/01/15 09:02:55;;;;;;;19.77;8.30;;;2.00;99.90;;;;;;4973782;28;20018;-50
2022/01/15 09:05:22;;;;;;;21.73;7.85;;;2.00;99.90;;;;;;4992091;28;20126;-53
2022/01/15 09:07:48;;;;;;;16.17;7.00;;;2.10;99.90;;;;;;4991459;28;20022;-51
2022/01/15 09:10:14;;;;;;;16.50;7.70;;;2.10;99.90;;;;;;4992037;28;20045;-53
2022/01/15 09:12:40;;;;;;;14.60;6.80;;;2.10;99.90;;;;;;4990457;28;20092;-52
2022/01/15 09:15:07;;;;;;;15.85;7.53;;;2.20;99.90;;;;;;4973549;28;20109;-50
2022/01/15 09:17:32;;;;;;;19.02;7.82;;;2.20;99.90;;;;;;4991927;28;20036;-51
2022/01/15 09:19:58;;;;;;;16.98;7.72;;;2.20;99.90;;;;;;4991102;28;20483;-53
2022/01/15 09:22:24;;;;;;;18.10;7.75;;;2.30;99.90;;;;;;4991775;28;20026;-51
2022/01/15 09:24:50;;;;;;;19.00;7.70;;;2.30;99.90;;;;;;4973585;28;20496;-50
2022/01/15 09:30:12;;;;;;;21.15;8.35;;;2.40;99.90;;;;;;4975169;28;20120;-51
2022/01/15 09:32:49;;;;;;;17.10;7.72;;;2.40;99.90;;;;;;5001513;28;20030;-51
2022/01/15 09:35:17;;;;;;;18.58;7.40;;;2.50;99.90;;;;;;4997647;28;20030;-52
2022/01/15 09:37:43;;;;;;;18.42;6.68;;;2.50;99.90;;;;;;4974091;28;20492;-52
2022/01/15 09:40:10;;;;;;;19.02;8.25;;;2.60;99.90;;;;;;4990896;28;20037;-52
2022/01/15 09:42:40;;;;;;;19.30;7.75;;;2.60;99.90;;;;;;4990046;28;20453;-53
2022/01/15 09:45:09;;;;;;;17.13;8.15;;;2.70;99.90;;;;;;4990628;28;20034;-53
2022/01/15 09:47:36;;;;;;;18.27;7.03;;;2.70;99.90;;;;;;4991116;28;20030;-51
2022/01/15 09:50:05;;;;;;;14.32;6.50;;;2.70;99.90;;;;;;4972887;28;20435;-51
2022/01/15 09:52:35;;;;;;;21.05;7.90;;;2.70;99.90;;;;;;4990111;28;20035;-54
2022/01/15 09:55:02;;;;;;;21.27;7.95;;;2.80;99.90;;;;;;4990510;28;20061;-54
2022/01/15 09:57:28;;;;;;;16.27;6.90;;;2.80;99.90;;;;;;4991334;28;20515;-53
2022/01/15 09:59:54;;;;;;;15.60;7.22;;;2.80;99.90;;;;;;4990688;28;20023;-54
2022/01/15 10:02:20;;;;;;;15.65;7.28;;;2.90;99.90;;;;;;5000502;28;20025;-51
2022/01/15 10:04:45;;;;;;;12.73;6.82;;;2.90;99.90;;;;;;5008314;28;20026;-52
2022/01/15 10:07:27;;;;;;;13.57;7.45;;;2.90;99.90;;;;;;5009840;28;20369;-53
2022/01/15 10:09:54;;;;;;;14.90;6.28;;;3.00;99.90;;;;;;5008075;28;20022;-50
2022/01/15 10:12:30;;;;;;;18.25;7.47;;;3.00;99.90;;;;;;4992007;28;20026;-53
2022/01/15 10:15:04;;;;;;;14.02;6.03;;;3.00;99.90;;;;;;5006820;28;20026;-54
2022/01/15 10:17:35;;;;;;;15.57;7.05;;;3.00;99.90;;;;;;5009501;28;20037;-54
2022/01/15 10:20:05;;;;;;;17.30;7.07;;;3.10;99.90;;;;;;5005190;28;20026;-52
2022/01/15 10:22:34;;;;;;;17.05;7.35;;;3.20;99.90;;;;;;4989139;28;20271;-55
2022/01/15 10:25:26;;;;;;;15.13;6.13;;;3.20;99.90;;;;;;4990187;28;20111;-51
2022/01/15 10:27:54;;;;;;;10.65;5.63;;;3.20;99.90;;;;;;4984148;28;20092;-55
2022/01/15 10:30:22;;;;;;;12.60;6.00;;;3.30;99.90;;;;;;4988753;28;20270;-52
2022/01/15 10:33:08;;;;;;;20.35;6.97;;;3.30;99.90;;;;;;4989864;28;20038;-53
2022/01/15 10:35:42;;;;;;;16.85;7.10;;;3.40;99.90;;;;;;4987867;28;20408;-56
2022/01/15 10:38:12;;;;;;;13.70;6.80;;;3.40;99.90;;;;;;5027699;23;20214;-55
2022/01/15 10:40:55;;;;;;;15.13;7.18;;;3.50;99.90;;;;;;5008110;28;20091;-53
2022/01/15 10:43:30;;;;;;;13.63;6.63;;;3.50;99.90;;;;;;5011548;28;20056;-57
2022/01/15 10:45:58;;;;;;;21.52;7.35;;;3.50;99.90;;;;;;5012823;28;20018;-56
2022/01/15 10:48:31;;;;;;;15.48;6.60;;;3.60;99.90;;;;;;5009790;28;20010;-52
2022/01/15 10:51:03;;;;;;;17.30;7.40;;;3.70;99.90;;;;;;5013494;28;20033;-52
2022/01/15 10:53:44;;;;;;;15.32;6.85;;;3.70;99.90;;;;;;5011477;28;20124;-54
2022/01/15 10:56:12;;;;;;;14.88;6.55;;;3.80;99.90;;;;;;5006232;28;20532;-54
2022/01/15 10:58:39;;;;;;;20.15;7.07;;;3.80;99.90;;;;;;5005593;28;20044;-57
2022/01/15 11:01:05;;;;;;;17.17;6.18;;;3.90;99.90;;;;;;5012205;28;20100;-55
2022/01/15 11:03:39;;;;;;;12.50;6.75;;;3.90;99.90;;;;;;5012118;28;20026;-53
2022/01/15 11:06:05;;;;;;;15.70;5.93;;;3.90;99.90;;;;;;5013517;28;20029;-60
2022/01/15 11:08:35;;;;;;;19.20;5.55;;;4.00;99.90;;;;;;5010488;28;20120;-58
2022/01/15 11:11:04;;;;;;;24.60;6.07;;;4.00;99.90;;;;;;5012479;28;20022;-55
2022/01/15 11:13:36;;;;;;;14.05;5.28;;;4.10;99.90;;;;;;5012163;28;20040;-58
2022/01/15 11:16:08;;;;;;;11.13;4.57;;;4.10;99.90;;;;;;5012659;28;20026;-57
2022/01/15 11:18:39;;;;;;;17.35;5.03;;;4.10;99.90;;;;;;5012053;28;20033;-57
2022/01/15 11:21:07;;;;;;;17.52;5.63;;;4.10;99.90;;;;;;4993707;28;20057;-52
2022/01/15 11:23:34;;;;;;;15.65;6.30;;;4.20;99.90;;;;;;5012052;28;20022;-55
2022/01/15 11:26:02;;;;;;;16.63;5.20;;;4.20;99.90;;;;;;4991252;28;20184;-54
2022/01/15 11:28:30;;;;;;;16.02;5.22;;;4.30;99.90;;;;;;5012443;28;20105;-56
2022/01/15 11:31:00;;;;;;;8.57;4.47;;;4.30;99.90;;;;;;5011258;28;20030;-60
2022/01/15 11:33:30;;;;;;;13.70;5.28;;;4.30;99.90;;;;;;5012901;28;20022;-56
2022/01/15 11:35:55;;;;;;;12.93;5.25;;;4.30;99.90;;;;;;4983172;28;20035;-57
2022/01/15 11:38:44;;;;;;;18.55;5.10;;;4.30;99.90;;;;;;4992642;28;20122;-55
2022/01/15 11:41:28;;;;;;;16.75;5.75;;;4.40;99.90;;;;;;5002636;28;20515;-56
2022/01/15 11:43:54;;;;;;;20.17;5.38;;;4.40;99.90;;;;;;4992740;28;20507;-57
2022/01/15 11:46:39;;;;;;;10.93;4.30;;;4.40;99.90;;;;;;4993462;28;20431;-55
2022/01/15 11:49:23;;;;;;;14.27;4.72;;;4.40;99.90;;;;;;4992888;28;20073;-54
2022/01/15 11:51:50;;;;;;;16.35;5.57;;;4.40;99.90;;;;;;5010852;28;20121;-57
2022/01/15 11:54:15;;;;;;;18.05;5.55;;;4.50;99.90;;;;;;5012700;28;20029;-56
2022/01/15 11:56:42;;;;;;;17.92;4.53;;;4.40;99.90;;;;;;5012166;28;20403;-52
2022/01/15 11:59:26;;;;;;;15.93;4.70;;;4.40;99.90;;;;;;5011965;28;20053;-55
2022/01/15 12:01:56;;;;;;;14.07;4.18;;;4.40;99.90;;;;;;5010386;28;20060;-50
2022/01/15 12:04:27;;;;;;;17.45;4.82;;;4.50;99.90;;;;;;4998707;28;20062;-55
2022/01/15 12:07:05;;;;;;;12.93;4.50;;;4.50;99.90;;;;;;4992279;28;20557;-54
2022/01/15 12:09:35;;;;;;;12.55;4.40;;;4.60;99.90;;;;;;4993787;28;20101;-52
2022/01/15 12:12:02;;;;;;;12.00;3.80;;;4.60;99.90;;;;;;5001834;28;20085;-56
2022/01/15 12:14:57;;;;;;;14.35;4.15;;;4.60;99.90;;;;;;4992070;28;20030;-53
2022/01/15 12:17:32;;;;;;;13.23;4.38;;;4.60;99.90;;;;;;5010940;28;20041;-55
2022/01/15 12:20:18;;;;;;;15.63;4.57;;;4.60;99.90;;;;;;5011577;28;20029;-55
2022/01/15 12:22:45;;;;;;;14.27;4.13;;;4.60;99.90;;;;;;5001148;28;20088;-56
2022/01/15 12:25:17;;;;;;;17.77;4.72;;;4.60;99.90;;;;;;5011970;28;20021;-55
2022/01/15 12:27:44;;;;;;;15.57;3.90;;;4.60;99.90;;;;;;5011818;28;20105;-52
2022/01/15 12:30:11;;;;;;;12.50;4.13;;;4.70;99.90;;;;;;5011344;28;20022;-54
2022/01/15 12:32:40;;;;;;;16.70;4.32;;;4.70;99.90;;;;;;5011484;28;20495;-55
2022/01/15 12:35:14;;;;;;;14.15;3.22;;;4.70;99.90;;;;;;5011757;28;20423;-53
2022/01/15 12:37:53;;;;;;;18.25;3.35;;;4.70;99.90;;;;;;5011180;28;20113;-55
2022/01/15 12:40:20;;;;;;;14.52;3.42;;;4.80;99.90;;;;;;4993762;28;20427;-55
2022/01/15 12:42:54;;;;;;;12.15;2.95;;;4.80;99.90;;;;;;5011307;28;20540;-56
2022/01/15 12:45:20;;;;;;;14.93;3.38;;;4.80;99.90;;;;;;5011198;28;20026;-57
2022/01/15 12:47:46;;;;;;;17.00;4.68;;;4.70;99.90;;;;;;5011262;28;20272;-53
2022/01/15 12:50:12;;;;;;;9.88;3.58;;;4.80;99.90;;;;;;5011488;28;20026;-54
2022/01/15 12:52:38;;;;;;;16.17;4.40;;;4.80;99.90;;;;;;4993331;28;20029;-57
2022/01/15 12:55:04;;;;;;;10.80;3.75;;;4.80;99.90;;;;;;5011496;28;20036;-52
2022/01/15 12:57:43;;;;;;;23.30;5.28;;;4.80;99.90;;;;;;5010921;28;20041;-57
2022/01/15 13:00:17;;;;;;;15.05;3.17;;;4.80;99.90;;;;;;5011050;28;20029;-56
2022/01/15 13:02:43;;;;;;;14.55;3.55;;;4.80;99.90;;;;;;5010375;28;20061;-54
2022/01/15 13:05:11;;;;;;;18.67;4.25;;;4.80;99.90;;;;;;5010162;28;20053;-58
2022/01/15 13:08:04;;;;;;;14.30;3.45;;;4.90;99.90;;;;;;4992916;28;20069;-56
2022/01/15 13:10:31;;;;;;;17.67;4.35;;;4.80;99.90;;;;;;5010843;28;20037;-54
2022/01/15 13:12:57;;;;;;;14.98;4.30;;;4.80;99.90;;;;;;5010643;28;20036;-58
2022/01/15 13:15:28;;;;;;;15.80;3.60;;;4.80;99.90;;;;;;5010460;28;20030;-56
2022/01/15 13:17:53;;;;;;;11.48;3.33;;;4.70;99.90;;;;;;4992859;28;20114;-54
2022/01/15 13:20:31;;;;;;;13.88;3.10;;;4.70;99.90;;;;;;5009393;28;20045;-59